createdAt,value
2022-07-29T00:00:11.188Z,75.90
2022-07-29T00:01:32.778Z,75.59
2022-07-29T00:02:34.537Z,75.80
2022-07-29T00:03:36.177Z,75.91
2022-07-29T00:04:42.124Z,75.91
2022-07-29T00:05:43.675Z,75.87
2022-07-29T00:06:45.459Z,75.97
2022-07-29T00:07:46.982Z,75.93
2022-07-29T00:08:48.577Z,75.87
2022-07-29T00:09:51.687Z,76.02
2022-07-29T00:10:54.361Z,76.25
2022-07-29T00:11:57.555Z,76.26
2022-07-29T00:12:59.125Z,76.17
2022-07-29T00:14:00.738Z,76.29
2022-07-29T00:15:03.051Z,76.27
2022-07-29T00:16:05.346Z,76.22
2022-07-29T00:17:07.205Z,76.18
2022-07-29T00:18:08.742Z,76.48
2022-07-29T00:19:10.306Z,76.36
2022-07-29T00:20:13.796Z,76.51
2022-07-29T00:21:15.624Z,76.49
2022-07-29T00:22:17.384Z,76.46
2022-07-29T00:23:18.961Z,76.54
2022-07-29T00:24:20.521Z,76.74
2022-07-29T00:25:22.186Z,76.87
2022-07-29T00:26:23.743Z,76.69
2022-07-29T00:27:25.527Z,76.86
2022-07-29T00:28:27.091Z,76.84
2022-07-29T00:29:34.068Z,76.82
2022-07-29T00:30:36.291Z,76.85
2022-07-29T00:31:37.928Z,77.02
2022-07-29T00:32:40.065Z,76.86
2022-07-29T00:33:41.716Z,77.19
2022-07-29T00:35:01.690Z,77.20
2022-07-29T00:36:04.077Z,77.19
2022-07-29T00:37:05.817Z,77.22
2022-07-29T00:38:10.265Z,77.35
2022-07-29T00:39:11.858Z,77.38
2022-07-29T00:40:13.420Z,77.20
2022-07-29T00:41:15.172Z,77.29
2022-07-29T00:42:17.155Z,77.26
2022-07-29T00:43:18.812Z,77.44
2022-07-29T00:44:20.341Z,77.43
2022-07-29T00:45:22.529Z,77.47
2022-07-29T00:46:24.114Z,77.55
2022-07-29T00:47:25.687Z,77.60
2022-07-29T00:48:27.296Z,77.68
2022-07-29T00:49:29.055Z,77.85
2022-07-29T00:50:31.500Z,77.69
2022-07-29T00:51:33.241Z,78.16
2022-07-29T00:52:36.612Z,78.05
2022-07-29T00:53:38.461Z,77.83
2022-07-29T00:54:44.725Z,78.01
2022-07-29T00:55:46.573Z,78.10
2022-07-29T00:56:48.102Z,78.33
2022-07-29T00:57:49.864Z,78.22
2022-07-29T00:58:51.948Z,78.32
2022-07-29T00:59:53.509Z,78.42
2022-07-29T01:00:55.280Z,78.32
2022-07-29T01:01:57.116Z,78.37
2022-07-29T01:02:58.845Z,78.21
2022-07-29T01:04:00.499Z,78.34
2022-07-29T01:05:02.878Z,78.21
2022-07-29T01:06:04.962Z,78.31
2022-07-29T01:07:07.239Z,78.31
2022-07-29T01:08:09.176Z,78.37
2022-07-29T01:09:11.328Z,78.47
2022-07-29T01:10:13.657Z,78.49
2022-07-29T01:11:17.513Z,78.73
2022-07-29T01:12:21.817Z,78.37
2022-07-29T01:13:23.541Z,78.73
2022-07-29T01:14:25.544Z,78.62
2022-07-29T01:15:27.565Z,78.74
2022-07-29T01:16:31.894Z,78.71
2022-07-29T01:17:50.377Z,78.65
2022-07-29T01:18:59.056Z,78.63
2022-07-29T01:20:09.993Z,78.74
2022-07-29T01:21:14.330Z,79.12
2022-07-29T01:22:25.093Z,78.96
2022-07-29T01:23:35.517Z,79.11
2022-07-29T01:24:56.405Z,78.98
2022-07-29T01:25:58.104Z,79.08
2022-07-29T01:27:09.492Z,79.25
2022-07-29T01:28:11.742Z,79.31
2022-07-29T01:29:38.762Z,79.20
2022-07-29T01:32:28.505Z,79.60
2022-07-29T01:33:51.206Z,79.54
2022-07-29T01:34:54.860Z,79.53
2022-07-29T01:35:56.602Z,79.36
2022-07-29T01:37:05.566Z,79.60
2022-07-29T01:38:13.080Z,79.33
2022-07-29T01:39:19.070Z,79.54
2022-07-29T01:40:24.403Z,79.56
2022-07-29T01:41:28.830Z,79.52
2022-07-29T01:42:30.281Z,79.60
2022-07-29T01:43:33.520Z,79.59
2022-07-29T01:44:38.395Z,79.50
2022-07-29T01:45:53.474Z,79.71
2022-07-29T01:46:58.531Z,79.80
2022-07-29T01:48:10.692Z,79.85
2022-07-29T01:49:15.735Z,79.78
2022-07-29T01:50:18.906Z,80.04
2022-07-29T01:51:21.856Z,80.07
2022-07-29T01:52:36.854Z,80.06
2022-07-29T01:53:42.019Z,80.14
2022-07-29T01:54:46.599Z,80.26
2022-07-29T01:55:48.845Z,80.31
2022-07-29T01:56:51.921Z,80.17
2022-07-29T01:57:54.294Z,80.46
2022-07-29T01:58:56.697Z,80.35
2022-07-29T02:00:00.804Z,80.52
2022-07-29T02:01:03.127Z,80.41
2022-07-29T02:02:06.039Z,80.60
2022-07-29T02:03:11.773Z,80.64
2022-07-29T02:04:26.689Z,80.70
2022-07-29T02:05:33.498Z,80.56
2022-07-29T02:06:37.711Z,80.53
2022-07-29T02:07:41.025Z,80.53
2022-07-29T02:08:43.376Z,80.74
2022-07-29T02:09:46.168Z,80.72
2022-07-29T02:10:48.833Z,80.76
2022-07-29T02:11:52.633Z,80.43
2022-07-29T02:12:55.116Z,80.70
2022-07-29T02:13:57.650Z,80.46
2022-07-29T02:15:01.070Z,80.57
2022-07-29T02:16:05.443Z,80.57
2022-07-29T02:17:08.396Z,80.65
2022-07-29T02:18:13.266Z,80.46
2022-07-29T02:19:15.178Z,80.58
2022-07-29T02:20:17.087Z,80.64
2022-07-29T02:21:23.442Z,80.68
2022-07-29T02:22:26.059Z,80.49
2022-07-29T02:23:27.801Z,80.52
2022-07-29T02:24:30.233Z,80.49
2022-07-29T02:25:37.286Z,80.64
2022-07-29T02:26:41.349Z,80.62
2022-07-29T02:27:43.670Z,80.64
2022-07-29T02:28:46.386Z,80.69
2022-07-29T02:29:49.297Z,80.87
2022-07-29T02:30:52.550Z,80.72
2022-07-29T02:31:55.443Z,80.74
2022-07-29T02:32:58.363Z,80.72
2022-07-29T02:34:01.725Z,80.83
2022-07-29T02:35:03.788Z,80.99
2022-07-29T02:36:05.605Z,81.11
2022-07-29T02:37:09.512Z,80.95
2022-07-29T02:38:32.233Z,81.08
2022-07-29T02:39:34.930Z,81.08
2022-07-29T02:40:38.262Z,81.18
2022-07-29T02:41:42.902Z,81.46
2022-07-29T02:42:45.003Z,81.16
2022-07-29T02:43:54.285Z,81.26
2022-07-29T02:44:56.162Z,81.26
2022-07-29T02:45:59.361Z,81.40
2022-07-29T02:47:12.867Z,81.29
2022-07-29T02:48:16.836Z,81.38
2022-07-29T02:49:21.409Z,81.28
2022-07-29T02:50:30.550Z,81.26
2022-07-29T02:51:44.708Z,81.46
2022-07-29T02:53:05.884Z,81.64
2022-07-29T02:54:08.235Z,81.54
2022-07-29T02:55:19.495Z,81.63
2022-07-29T02:56:25.986Z,81.56
2022-07-29T02:57:32.232Z,81.73
2022-07-29T02:58:42.011Z,81.71
2022-07-29T02:59:45.612Z,81.70
2022-07-29T03:00:49.223Z,81.62
2022-07-29T03:01:51.651Z,81.65
2022-07-29T03:02:54.344Z,81.70
2022-07-29T03:03:56.449Z,81.69
2022-07-29T03:04:58.367Z,81.59
2022-07-29T03:06:01.329Z,81.70
2022-07-29T03:07:04.051Z,81.91
2022-07-29T03:08:06.969Z,81.82
2022-07-29T03:09:13.390Z,81.68
2022-07-29T03:10:15.844Z,81.76
2022-07-29T03:11:18.129Z,81.84
2022-07-29T03:12:19.855Z,81.71
2022-07-29T03:13:21.726Z,81.94
2022-07-29T03:14:23.766Z,81.95
2022-07-29T03:15:25.919Z,81.88
2022-07-29T03:16:28.041Z,81.85
2022-07-29T03:17:30.708Z,82.00
2022-07-29T03:18:32.299Z,81.85
2022-07-29T03:19:34.611Z,81.76
2022-07-29T03:20:37.751Z,81.91
2022-07-29T03:21:39.471Z,82.06
2022-07-29T03:22:47.041Z,81.90
2022-07-29T03:23:48.601Z,82.27
2022-07-29T03:24:50.088Z,82.03
2022-07-29T03:25:52.137Z,82.21
2022-07-29T03:26:55.188Z,82.33
2022-07-29T03:27:56.886Z,82.13
2022-07-29T03:28:58.414Z,82.21
2022-07-29T03:29:59.910Z,82.26
2022-07-29T03:31:01.725Z,82.29
2022-07-29T03:32:08.102Z,82.23
2022-07-29T03:33:13.437Z,82.19
2022-07-29T03:34:15.766Z,82.40
2022-07-29T03:35:17.581Z,82.22
2022-07-29T03:36:19.102Z,82.18
2022-07-29T03:37:20.754Z,82.67
2022-07-29T03:38:24.458Z,82.42
2022-07-29T03:39:31.845Z,82.52
2022-07-29T03:40:38.966Z,82.48
2022-07-29T03:41:42.036Z,82.58
2022-07-29T03:42:44.524Z,82.78
2022-07-29T03:43:49.446Z,82.71
2022-07-29T03:44:52.919Z,82.67
2022-07-29T03:45:55.326Z,82.61
2022-07-29T03:47:00.360Z,82.62
2022-07-29T03:48:05.912Z,82.59
2022-07-29T03:49:08.827Z,82.58
2022-07-29T03:50:12.221Z,82.65
2022-07-29T03:51:13.954Z,82.80
2022-07-29T03:52:15.797Z,82.88
2022-07-29T03:53:17.846Z,83.05
2022-07-29T03:54:20.399Z,83.12
2022-07-29T03:55:22.341Z,83.09
2022-07-29T03:56:24.897Z,83.01
2022-07-29T03:57:28.210Z,83.09
2022-07-29T03:58:31.028Z,83.02
2022-07-29T03:59:36.583Z,83.25
2022-07-29T04:00:38.235Z,83.40
2022-07-29T04:01:40.094Z,83.28
2022-07-29T04:02:45.360Z,83.51
2022-07-29T04:03:47.105Z,83.38
2022-07-29T04:04:48.934Z,83.39
2022-07-29T04:06:03.864Z,83.36
2022-07-29T04:07:05.624Z,83.18
2022-07-29T04:08:07.336Z,83.28
2022-07-29T04:09:09.937Z,83.25
2022-07-29T04:10:11.662Z,83.33
2022-07-29T04:11:13.222Z,83.28
2022-07-29T04:12:14.754Z,83.21
2022-07-29T04:13:16.651Z,83.30
2022-07-29T04:14:18.934Z,83.10
2022-07-29T04:15:20.746Z,82.92
2022-07-29T04:16:22.399Z,82.85
2022-07-29T04:17:24.100Z,82.65
2022-07-29T04:18:25.682Z,82.82
2022-07-29T04:19:27.697Z,82.82
2022-07-29T04:20:29.332Z,82.71
2022-07-29T04:21:30.889Z,82.65
2022-07-29T04:22:32.585Z,82.66
2022-07-29T04:23:34.092Z,82.41
2022-07-29T04:24:37.393Z,82.42
2022-07-29T04:25:39.628Z,82.47
2022-07-29T04:26:41.173Z,82.47
2022-07-29T04:28:00.446Z,82.27
2022-07-29T04:29:02.377Z,82.36
2022-07-29T04:30:04.357Z,82.21
2022-07-29T04:31:05.873Z,82.22
2022-07-29T04:32:07.425Z,82.14
2022-07-29T04:33:09.011Z,82.08
2022-07-29T04:34:11.160Z,82.13
2022-07-29T04:35:12.874Z,81.79
2022-07-29T04:36:28.660Z,81.87
2022-07-29T04:37:31.144Z,81.85
2022-07-29T04:38:32.671Z,81.77
2022-07-29T04:39:34.337Z,81.60
2022-07-29T04:40:36.139Z,81.71
2022-07-29T04:41:40.320Z,81.66
2022-07-29T04:42:46.860Z,81.50
2022-07-29T04:43:49.569Z,81.34
2022-07-29T04:44:51.384Z,81.29
2022-07-29T04:45:53.676Z,81.32
2022-07-29T04:46:55.529Z,81.24
2022-07-29T04:47:57.123Z,81.20
2022-07-29T04:48:58.709Z,81.18
2022-07-29T04:50:00.629Z,81.13
2022-07-29T04:51:02.481Z,81.15
2022-07-29T04:52:04.422Z,81.26
2022-07-29T04:53:06.259Z,81.18
2022-07-29T04:54:07.871Z,81.07
2022-07-29T04:55:09.784Z,81.03
2022-07-29T04:56:11.474Z,80.90
2022-07-29T04:57:13.053Z,80.84
2022-07-29T04:58:14.587Z,80.70
2022-07-29T04:59:16.183Z,80.47
2022-07-29T05:00:17.873Z,80.34
2022-07-29T05:01:19.631Z,80.28
2022-07-29T05:02:22.256Z,80.12
2022-07-29T05:03:23.821Z,80.19
2022-07-29T05:04:25.357Z,80.39
2022-07-29T05:05:26.912Z,80.26
2022-07-29T05:06:28.635Z,80.13
2022-07-29T05:07:30.156Z,80.07
2022-07-29T05:08:31.724Z,79.92
2022-07-29T05:09:33.257Z,79.90
2022-07-29T05:10:38.349Z,79.84
2022-07-29T05:11:40.246Z,79.89
2022-07-29T05:12:41.873Z,79.89
2022-07-29T05:13:45.341Z,79.92
2022-07-29T05:14:48.050Z,79.68
2022-07-29T05:15:50.117Z,79.46
2022-07-29T05:16:51.863Z,79.27
2022-07-29T05:17:53.378Z,79.17
2022-07-29T05:18:54.993Z,78.93
2022-07-29T05:19:56.589Z,78.80
2022-07-29T05:20:58.258Z,78.69
2022-07-29T05:22:00.391Z,78.62
2022-07-29T05:23:03.129Z,78.64
2022-07-29T05:24:04.747Z,78.33
2022-07-29T05:25:09.146Z,77.90
2022-07-29T05:26:11.351Z,77.52
2022-07-29T05:27:13.532Z,77.32
2022-07-29T05:28:15.442Z,77.07
2022-07-29T05:29:44.106Z,76.73
2022-07-29T05:30:38.831Z,76.53
2022-07-29T05:31:40.692Z,76.53
2022-07-29T05:32:42.343Z,76.29
2022-07-29T05:33:43.864Z,76.37
2022-07-29T05:34:50.700Z,76.02
2022-07-29T05:35:56.203Z,75.69
2022-07-29T05:37:00.423Z,75.07
2022-07-29T05:38:02.068Z,74.87
2022-07-29T05:39:03.769Z,74.77
2022-07-29T05:40:05.710Z,74.59
2022-07-29T05:41:07.250Z,74.43
2022-07-29T05:42:09.846Z,74.23
2022-07-29T05:43:11.495Z,73.58
2022-07-29T05:44:14.291Z,73.23
2022-07-29T05:45:16.074Z,73.00
2022-07-29T05:46:17.755Z,72.71
2022-07-29T05:47:19.480Z,72.16
2022-07-29T05:48:21.306Z,71.59
2022-07-29T05:49:24.225Z,70.92
2022-07-29T05:50:28.991Z,70.94
2022-07-29T05:51:30.595Z,70.85
2022-07-29T05:52:32.188Z,70.51
2022-07-29T05:53:34.146Z,70.25
2022-07-29T05:54:35.951Z,69.92
2022-07-29T05:55:37.483Z,69.98
2022-07-29T05:56:40.967Z,69.67
2022-07-29T05:57:43.846Z,69.46
2022-07-29T05:58:47.435Z,69.43
2022-07-29T05:59:49.565Z,69.42
2022-07-29T06:00:51.144Z,69.17
2022-07-29T06:01:52.788Z,69.08
2022-07-29T06:02:54.622Z,69.15
2022-07-29T06:03:56.465Z,68.78
2022-07-29T06:04:58.025Z,68.40
2022-07-29T06:05:59.630Z,68.34
2022-07-29T06:07:01.998Z,68.27
2022-07-29T06:08:06.051Z,68.26
2022-07-29T06:09:12.289Z,68.20
2022-07-29T06:10:14.593Z,67.70
2022-07-29T06:11:16.155Z,67.66
2022-07-29T06:12:17.621Z,67.43
2022-07-29T06:13:19.237Z,67.47
2022-07-29T06:14:20.922Z,67.27
2022-07-29T06:15:22.499Z,67.17
2022-07-29T06:16:30.021Z,66.87
2022-07-29T06:17:32.212Z,66.87
2022-07-29T06:18:33.926Z,66.99
2022-07-29T06:19:36.558Z,66.91
2022-07-29T06:20:38.088Z,66.49
2022-07-29T06:33:19.794Z,64.94
2022-07-29T06:34:22.894Z,64.65
2022-07-29T06:35:38.516Z,64.54
2022-07-29T06:36:45.145Z,64.32
2022-07-29T06:37:48.996Z,63.99
2022-07-29T06:38:52.476Z,63.82
2022-07-29T06:40:15.408Z,63.12
2022-07-29T06:41:19.098Z,63.24
2022-07-29T06:42:22.189Z,63.57
2022-07-29T06:43:25.167Z,63.49
2022-07-29T06:44:29.570Z,63.65
2022-07-29T06:45:35.582Z,63.53
2022-07-29T06:46:38.657Z,63.11
2022-07-29T06:47:41.522Z,63.37
2022-07-29T06:48:45.131Z,63.37
2022-07-29T06:49:48.106Z,63.18
2022-07-29T06:50:51.152Z,63.10
2022-07-29T06:51:54.477Z,63.37
2022-07-29T06:52:57.519Z,63.05
2022-07-29T06:54:03.293Z,63.17
2022-07-29T06:55:07.200Z,63.02
2022-07-29T06:56:10.735Z,62.39
2022-07-29T06:57:13.658Z,62.25
2022-07-29T06:58:18.923Z,62.22
2022-07-29T06:59:35.596Z,62.14
2022-07-29T07:00:39.071Z,62.06
2022-07-29T07:01:44.214Z,62.04
2022-07-29T07:02:47.466Z,61.73
2022-07-29T07:03:50.727Z,61.57
2022-07-29T07:04:53.620Z,61.52
2022-07-29T07:05:56.996Z,61.58
2022-07-29T07:07:00.655Z,61.33
2022-07-29T07:08:03.858Z,61.19
2022-07-29T07:09:07.198Z,61.25
2022-07-29T07:10:10.221Z,61.21
2022-07-29T07:11:13.353Z,61.11
2022-07-29T07:12:16.504Z,61.13
2022-07-29T07:13:19.948Z,61.00
2022-07-29T07:14:22.871Z,60.91
2022-07-29T07:15:38.826Z,60.90
2022-07-29T07:16:43.295Z,60.78
2022-07-29T07:17:46.381Z,60.76
2022-07-29T07:18:49.278Z,60.83
2022-07-29T07:19:52.163Z,60.21
2022-07-29T07:20:55.052Z,60.19
2022-07-29T07:21:58.133Z,59.52
2022-07-29T07:23:01.292Z,59.42
2022-07-29T07:24:04.424Z,59.92
2022-07-29T07:25:07.759Z,60.10
2022-07-29T07:26:11.967Z,60.18
2022-07-29T07:27:14.912Z,60.15
2022-07-29T07:28:18.039Z,60.14
2022-07-29T07:29:20.995Z,59.86
2022-07-29T07:30:23.913Z,59.93
2022-07-29T07:31:26.945Z,60.35
2022-07-29T07:32:30.120Z,60.63
2022-07-29T07:33:33.132Z,60.70
2022-07-29T07:34:36.150Z,60.90
2022-07-29T07:35:39.069Z,60.59
2022-07-29T07:36:42.019Z,60.38
2022-07-29T07:37:45.173Z,60.00
2022-07-29T07:38:48.315Z,60.10
2022-07-29T07:39:51.490Z,60.12
2022-07-29T07:40:54.507Z,59.90
2022-07-29T07:41:57.419Z,59.71
2022-07-29T07:43:00.668Z,59.65
2022-07-29T07:44:03.839Z,59.89
2022-07-29T07:45:16.164Z,59.85
2022-07-29T07:46:19.827Z,59.91
2022-07-29T07:47:24.513Z,59.88
2022-07-29T07:48:31.257Z,59.69
2022-07-29T07:49:34.241Z,59.53
2022-07-29T07:50:37.754Z,59.61
2022-07-29T07:51:40.796Z,59.74
2022-07-29T07:52:47.546Z,59.65
2022-07-29T07:53:51.385Z,59.33
2022-07-29T07:54:54.850Z,59.16
2022-07-29T07:56:10.409Z,58.95
2022-07-29T07:57:14.626Z,58.87
2022-07-29T07:58:17.517Z,58.63
2022-07-29T07:59:20.642Z,58.75
2022-07-29T08:00:24.027Z,58.59
2022-07-29T08:01:27.065Z,58.71
2022-07-29T08:02:30.284Z,58.64
2022-07-29T08:03:33.801Z,58.67
2022-07-29T08:04:37.244Z,58.31
2022-07-29T08:05:43.367Z,58.11
2022-07-29T08:06:46.450Z,57.86
2022-07-29T08:07:49.443Z,57.67
2022-07-29T08:08:56.271Z,57.31
2022-07-29T08:09:59.669Z,57.30
2022-07-29T08:11:09.051Z,56.77
2022-07-29T08:12:12.979Z,57.00
2022-07-29T08:13:15.927Z,57.15
2022-07-29T08:14:19.150Z,57.10
2022-07-29T08:15:22.534Z,57.03
2022-07-29T08:16:26.275Z,56.81
2022-07-29T08:17:29.366Z,56.77
2022-07-29T08:18:32.315Z,56.47
2022-07-29T08:19:35.248Z,56.41
2022-07-29T08:20:39.525Z,56.41
2022-07-29T08:21:42.523Z,56.45
2022-07-29T08:22:45.527Z,56.19
2022-07-29T08:23:59.574Z,56.22
2022-07-29T08:25:03.963Z,56.33
2022-07-29T08:26:11.371Z,56.27
2022-07-29T08:27:40.700Z,56.19
2022-07-29T08:28:38.729Z,56.41
2022-07-29T08:29:41.601Z,56.67
2022-07-29T08:30:44.614Z,56.67
2022-07-29T08:31:47.890Z,56.67
2022-07-29T08:32:54.985Z,56.55
2022-07-29T08:34:00.887Z,56.35
2022-07-29T08:35:04.034Z,56.35
2022-07-29T08:36:07.831Z,56.27
2022-07-29T08:37:10.949Z,55.91
2022-07-29T08:38:14.108Z,55.95
2022-07-29T08:39:17.101Z,55.88
2022-07-29T08:40:21.515Z,55.87
2022-07-29T08:41:36.277Z,55.87
2022-07-29T08:42:39.242Z,55.96
2022-07-29T08:43:42.902Z,56.00
2022-07-29T08:44:46.183Z,55.96
2022-07-29T08:45:50.262Z,55.82
2022-07-29T08:46:53.176Z,55.88
2022-07-29T08:47:56.426Z,55.53
2022-07-29T08:48:59.508Z,55.70
2022-07-29T08:50:02.520Z,55.76
2022-07-29T08:51:06.829Z,55.59
2022-07-29T08:52:12.940Z,55.65
2022-07-29T08:53:17.280Z,55.73
2022-07-29T08:54:21.046Z,55.78
2022-07-29T08:55:23.991Z,55.51
2022-07-29T08:56:27.271Z,55.52
2022-07-29T08:57:30.858Z,55.26
2022-07-29T08:58:36.905Z,55.28
2022-07-29T08:59:43.655Z,55.22
2022-07-29T09:00:51.075Z,54.86
2022-07-29T09:01:55.575Z,54.77
2022-07-29T09:03:00.203Z,54.43
2022-07-29T09:04:05.688Z,54.51
2022-07-29T09:05:09.402Z,54.70
2022-07-29T09:06:16.172Z,54.59
2022-07-29T09:07:20.190Z,54.73
2022-07-29T09:08:24.273Z,54.79
2022-07-29T09:09:27.310Z,54.81
2022-07-29T09:10:31.224Z,54.46
2022-07-29T09:11:34.643Z,54.29
2022-07-29T09:12:38.196Z,54.26
2022-07-29T09:13:41.525Z,54.27
2022-07-29T09:14:44.594Z,54.33
2022-07-29T09:15:47.692Z,54.49
2022-07-29T09:16:59.733Z,54.35
2022-07-29T09:18:04.392Z,54.30
2022-07-29T09:19:20.277Z,54.19
2022-07-29T09:20:24.133Z,54.19
2022-07-29T09:21:59.730Z,54.01
2022-07-29T09:23:09.354Z,53.97
2022-07-29T09:24:15.142Z,53.99
2022-07-29T09:25:34.072Z,53.98
2022-07-29T09:26:43.225Z,53.79
2022-07-29T09:27:50.701Z,53.87
2022-07-29T09:28:53.612Z,53.76
2022-07-29T09:29:58.089Z,53.85
2022-07-29T09:31:01.226Z,53.60
2022-07-29T09:32:07.342Z,53.70
2022-07-29T09:33:11.449Z,53.41
2022-07-29T09:34:16.276Z,53.43
2022-07-29T09:35:20.872Z,52.97
2022-07-29T09:36:23.832Z,52.74
2022-07-29T09:37:28.650Z,52.69
2022-07-29T09:38:31.926Z,53.12
2022-07-29T09:39:47.647Z,52.98
2022-07-29T09:41:09.844Z,53.07
2022-07-29T09:42:13.161Z,53.34
2022-07-29T09:43:19.024Z,53.44
2022-07-29T09:44:23.509Z,53.29
2022-07-29T09:45:28.116Z,53.25
2022-07-29T09:46:31.074Z,52.77
2022-07-29T09:47:42.093Z,52.95
2022-07-29T09:48:46.250Z,52.76
2022-07-29T09:49:59.087Z,52.80
2022-07-29T09:51:03.300Z,52.77
2022-07-29T09:52:07.744Z,52.89
2022-07-29T09:53:11.316Z,52.76
2022-07-29T09:54:27.561Z,52.80
2022-07-29T09:55:30.587Z,53.10
2022-07-29T09:56:42.921Z,53.05
2022-07-29T09:57:46.414Z,52.94
2022-07-29T09:59:06.070Z,52.63
2022-07-29T10:00:10.989Z,52.46
2022-07-29T10:01:16.934Z,52.28
2022-07-29T10:02:23.699Z,52.20
2022-07-29T10:03:27.052Z,52.09
2022-07-29T10:04:48.277Z,52.15
2022-07-29T10:06:06.513Z,51.87
2022-07-29T10:07:10.218Z,52.06
2022-07-29T10:08:13.628Z,51.85
2022-07-29T10:09:17.225Z,51.76
2022-07-29T10:10:25.503Z,51.55
2022-07-29T10:11:48.093Z,51.17
2022-07-29T10:13:07.122Z,51.64
2022-07-29T10:14:11.906Z,51.61
2022-07-29T10:15:16.220Z,51.50
2022-07-29T10:16:19.954Z,51.63
2022-07-29T10:17:23.605Z,51.38
2022-07-29T10:18:26.590Z,50.79
2022-07-29T10:19:31.954Z,50.79
2022-07-29T10:20:37.248Z,50.47
2022-07-29T10:21:44.348Z,50.25
2022-07-29T10:22:53.425Z,50.24
2022-07-29T10:24:01.560Z,49.74
2022-07-29T10:25:04.822Z,48.83
2022-07-29T10:26:11.458Z,48.04
2022-07-29T10:27:14.774Z,46.75
2022-07-29T10:28:17.744Z,47.27
2022-07-29T10:29:21.495Z,46.56
2022-07-29T10:30:25.571Z,46.32
2022-07-29T10:31:33.103Z,46.12
2022-07-29T10:32:54.818Z,45.26
2022-07-29T10:34:09.267Z,45.10
2022-07-29T10:35:13.091Z,45.22
2022-07-29T10:36:18.941Z,45.25
2022-07-29T10:37:45.998Z,44.90
2022-07-29T10:38:52.124Z,44.03
2022-07-29T10:40:43.849Z,43.74
2022-07-29T10:41:47.862Z,43.33
2022-07-29T10:42:53.227Z,42.69
2022-07-29T10:44:29.360Z,42.37
2022-07-29T10:45:32.491Z,42.35
2022-07-29T10:46:37.465Z,41.86
2022-07-29T10:47:42.690Z,41.93
2022-07-29T10:49:04.629Z,41.45
2022-07-29T10:50:09.484Z,41.65
2022-07-29T10:51:15.781Z,41.60
2022-07-29T10:52:21.460Z,41.68
2022-07-29T10:53:48.854Z,41.92
2022-07-29T10:54:52.639Z,41.29
2022-07-29T10:55:55.710Z,40.83
2022-07-29T10:57:11.454Z,41.06
2022-07-29T10:58:14.775Z,40.81
2022-07-29T10:59:17.635Z,40.57
2022-07-29T11:00:30.164Z,40.39
2022-07-29T11:01:37.329Z,40.90
2022-07-29T11:02:43.638Z,40.98
2022-07-29T11:03:53.649Z,41.17
2022-07-29T11:04:57.398Z,41.44
2022-07-29T11:06:01.313Z,41.66
2022-07-29T11:07:09.127Z,41.73
2022-07-29T11:09:46.661Z,41.40
2022-07-29T11:10:50.297Z,41.50
2022-07-29T11:11:53.564Z,41.27
2022-07-29T11:12:56.788Z,41.33
2022-07-29T11:13:59.925Z,40.76
2022-07-29T11:15:03.673Z,40.04
2022-07-29T11:16:07.773Z,40.99
2022-07-29T11:17:14.090Z,40.69
2022-07-29T11:18:17.505Z,40.97
2022-07-29T11:19:26.487Z,40.58
2022-07-29T11:20:45.536Z,40.65
2022-07-29T11:22:00.397Z,40.86
2022-07-29T11:23:19.616Z,40.97
2022-07-29T11:24:29.124Z,40.86
2022-07-29T11:25:50.340Z,39.33
2022-07-29T11:27:07.392Z,39.74
2022-07-29T11:28:23.150Z,40.08
2022-07-29T11:29:28.626Z,39.30
2022-07-29T11:30:52.137Z,39.69
2022-07-29T11:32:08.886Z,39.13
2022-07-29T11:33:54.138Z,38.33
2022-07-29T11:35:16.742Z,38.84
2022-07-29T11:36:27.951Z,38.77
2022-07-29T11:37:31.955Z,38.81
2022-07-29T11:38:45.279Z,38.48
2022-07-29T11:39:54.385Z,37.98
2022-07-29T11:41:16.390Z,37.28
2022-07-29T11:42:32.347Z,37.75
2022-07-29T11:45:43.003Z,37.65
2022-07-29T11:46:50.114Z,37.97
2022-07-29T11:47:54.692Z,37.98
2022-07-29T11:48:57.767Z,36.76
2022-07-29T11:50:03.466Z,37.36
2022-07-29T11:51:13.216Z,36.34
2022-07-29T11:52:17.026Z,37.13
2022-07-29T11:53:20.281Z,37.00
2022-07-29T11:54:27.585Z,36.79
2022-07-29T11:55:33.927Z,36.77
2022-07-29T11:56:40.149Z,36.80
2022-07-29T11:58:03.908Z,36.59
2022-07-29T11:59:15.130Z,35.84
2022-07-29T12:00:26.006Z,35.71
2022-07-29T12:01:28.990Z,35.55
2022-07-29T12:02:43.246Z,35.15
2022-07-29T12:03:46.612Z,34.88
2022-07-29T12:04:51.709Z,35.51
2022-07-29T12:05:57.494Z,35.60
2022-07-29T12:07:02.850Z,35.24
2022-07-29T12:08:15.030Z,35.13
2022-07-29T12:09:18.876Z,34.24
2022-07-29T12:10:31.404Z,34.67
2022-07-29T12:11:36.476Z,34.46
2022-07-29T12:12:39.879Z,34.35
2022-07-29T12:13:42.928Z,34.12
2022-07-29T12:14:48.903Z,33.24
2022-07-29T12:15:56.288Z,33.35
2022-07-29T12:17:03.330Z,32.95
2022-07-29T12:18:13.027Z,32.51
2022-07-29T12:19:15.997Z,32.46
2022-07-29T12:20:29.735Z,32.75
2022-07-29T12:21:59.505Z,32.57
2022-07-29T12:23:07.662Z,32.41
2022-07-29T12:24:12.745Z,32.11
2022-07-29T12:25:33.007Z,32.25
2022-07-29T12:26:38.050Z,31.50
2022-07-29T12:27:46.901Z,32.22
2022-07-29T12:28:49.914Z,31.55
2022-07-29T12:30:00.725Z,31.50
2022-07-29T12:31:03.989Z,31.04
2022-07-29T12:32:14.588Z,30.66
2022-07-29T12:33:24.349Z,30.65
2022-07-29T12:34:29.368Z,30.63
2022-07-29T12:35:32.355Z,30.01
2022-07-29T12:36:35.363Z,30.24
2022-07-29T12:37:40.677Z,30.54
2022-07-29T12:38:45.690Z,30.74
2022-07-29T12:39:48.864Z,30.64
2022-07-29T12:40:52.851Z,30.70
2022-07-29T12:42:04.433Z,30.26
2022-07-29T12:43:19.725Z,29.62
2022-07-29T12:44:22.728Z,29.51
2022-07-29T12:45:32.283Z,29.76
2022-07-29T12:46:35.208Z,29.45
2022-07-29T12:47:54.138Z,29.10
2022-07-29T12:48:57.717Z,29.08
2022-07-29T12:50:11.163Z,29.52
2022-07-29T12:51:15.631Z,29.25
2022-07-29T12:52:27.352Z,29.04
2022-07-29T12:53:30.595Z,29.25
2022-07-29T12:54:33.503Z,28.16
2022-07-29T12:55:55.723Z,28.35
2022-07-29T12:57:01.690Z,28.25
2022-07-29T12:58:04.590Z,28.18
2022-07-29T12:59:14.651Z,27.82
2022-07-29T13:00:18.065Z,27.65
2022-07-29T13:01:21.864Z,27.51
2022-07-29T13:02:25.042Z,27.48
2022-07-29T13:03:28.194Z,27.51
2022-07-29T13:04:32.497Z,27.46
2022-07-29T13:05:48.555Z,27.48
2022-07-29T13:06:59.404Z,26.99
2022-07-29T13:08:20.413Z,27.37
2022-07-29T13:09:36.844Z,27.36
2022-07-29T13:10:40.362Z,27.30
2022-07-29T13:11:48.174Z,27.49
2022-07-29T13:13:10.642Z,27.02
2022-07-29T13:14:33.147Z,26.78
2022-07-29T13:15:37.168Z,26.91
2022-07-29T13:16:59.411Z,26.80
2022-07-29T13:18:02.544Z,26.77
2022-07-29T13:19:12.727Z,26.71
2022-07-29T13:20:15.864Z,26.92
2022-07-29T13:21:19.037Z,26.62
2022-07-29T13:22:23.420Z,26.62
2022-07-29T13:23:27.069Z,26.90
2022-07-29T13:24:30.128Z,27.09
2022-07-29T13:25:33.311Z,27.12
2022-07-29T13:26:36.348Z,27.32
2022-07-29T13:27:45.620Z,27.09
2022-07-29T13:28:49.368Z,27.13
2022-07-29T13:29:53.531Z,26.81
2022-07-29T13:30:56.474Z,27.16
2022-07-29T13:32:00.062Z,27.13
2022-07-29T13:33:03.685Z,27.48
2022-07-29T13:34:07.038Z,27.58
2022-07-29T13:35:10.978Z,27.90
2022-07-29T13:36:13.881Z,28.40
2022-07-29T13:37:18.217Z,28.67
2022-07-29T13:38:21.326Z,28.95
2022-07-29T13:39:24.456Z,29.15
2022-07-29T13:40:27.427Z,29.46
2022-07-29T13:41:30.574Z,29.51
2022-07-29T13:42:33.766Z,29.78
2022-07-29T13:43:36.782Z,29.84
2022-07-29T13:44:40.455Z,29.97
2022-07-29T13:45:43.460Z,30.26
2022-07-29T13:46:46.562Z,30.47
2022-07-29T13:47:49.635Z,30.62
2022-07-29T13:48:52.581Z,31.00
2022-07-29T13:49:56.116Z,31.10
2022-07-29T13:50:59.155Z,31.61
2022-07-29T13:52:02.439Z,31.81
2022-07-29T13:53:05.529Z,31.78
2022-07-29T13:54:09.459Z,31.49
2022-07-29T13:55:12.629Z,31.44
2022-07-29T13:56:15.648Z,31.49
2022-07-29T13:57:18.547Z,31.71
2022-07-29T13:58:21.617Z,31.97
2022-07-29T13:59:24.522Z,32.06
2022-07-29T14:00:27.773Z,31.93
2022-07-29T14:01:31.981Z,32.25
2022-07-29T14:02:34.946Z,32.47
2022-07-29T14:03:41.797Z,32.35
2022-07-29T14:04:49.126Z,32.46
2022-07-29T14:05:52.420Z,32.76
2022-07-29T14:06:55.331Z,33.11
2022-07-29T14:07:58.228Z,33.02
2022-07-29T14:09:01.134Z,33.43
2022-07-29T14:10:04.535Z,33.63
2022-07-29T14:11:07.680Z,33.60
2022-07-29T14:12:10.691Z,33.49
2022-07-29T14:13:24.620Z,33.44
2022-07-29T14:14:27.934Z,33.60
2022-07-29T14:15:31.103Z,33.41
2022-07-29T14:16:36.186Z,33.20
2022-07-29T14:17:41.005Z,32.91